Time;durP1;ratioP1;P1;durP2;ratioP2;P2;SDS_P1;SDS_P2;PMS_P1;PMS_P2;Temp;Humidity;BMP_temperature;BMP_pressure;BME280_temperature;BME280_humidity;BME280_pressure;Samples;Min_cycle;Max_cycle;Signal;HPM_P1;HPM_P2
2023/06/04 00:02:10;;;;;;;9.20;8.60;;;20.00;14.80;;;;;;4994103;28;20907;-73
2023/06/04 00:04:35;;;;;;;8.90;8.30;;;20.00;14.80;;;;;;4994866;28;20171;-73
2023/06/04 00:07:01;;;;;;;10.30;9.50;;;20.10;14.60;;;;;;4993386;28;20520;-73
2023/06/04 00:09:26;;;;;;;9.80;9.20;;;20.10;14.60;;;;;;4994972;28;20229;-72
2023/06/04 00:11:52;;;;;;;10.53;9.73;;;20.00;14.80;;;;;;4994242;28;20182;-73
2023/06/04 00:14:17;;;;;;;10.60;9.67;;;20.00;15.00;;;;;;4994511;28;20281;-73
2023/06/04 00:16:43;;;;;;;9.73;9.03;;;20.00;15.00;;;;;;4994728;28;20328;-73
2023/06/04 00:19:08;;;;;;;9.10;8.50;;;20.00;14.90;;;;;;4994429;28;20205;-73
2023/06/04 00:21:35;;;;;;;9.63;9.03;;;20.00;14.70;;;;;;4993885;28;20174;-73
2023/06/04 00:24:01;;;;;;;9.10;8.50;;;20.00;14.60;;;;;;4994376;28;20194;-73
2023/06/04 00:26:27;;;;;;;8.93;8.27;;;20.00;14.60;;;;;;4994307;28;20417;-73
2023/06/04 00:28:54;;;;;;;8.80;8.20;;;19.90;14.80;;;;;;4994367;28;20980;-74
2023/06/04 00:31:21;;;;;;;8.90;8.20;;;19.90;14.80;;;;;;4993880;28;20174;-73
2023/06/04 00:33:47;;;;;;;9.80;8.90;;;19.90;14.40;;;;;;4994088;28;20440;-74
2023/06/04 00:36:12;;;;;;;9.30;8.60;;;19.90;14.40;;;;;;4994169;28;20428;-73
2023/06/04 00:38:38;;;;;;;9.50;8.80;;;19.90;14.50;;;;;;4993385;28;20975;-73
2023/06/04 00:41:03;;;;;;;8.63;7.93;;;19.90;14.20;;;;;;4993155;28;20174;-74
2023/06/04 00:43:31;;;;;;;8.40;7.70;;;19.90;14.20;;;;;;4993326;28;20269;-73
2023/06/04 00:45:57;;;;;;;8.10;7.50;;;19.90;14.00;;;;;;4994077;28;20170;-73
2023/06/04 00:48:24;;;;;;;8.60;8.10;;;19.90;13.90;;;;;;4994174;28;20413;-73
2023/06/04 00:50:50;;;;;;;8.67;8.07;;;19.80;13.90;;;;;;4993934;28;20560;-73
2023/06/04 00:53:16;;;;;;;8.97;7.90;;;19.80;13.90;;;;;;4993359;28;20436;-73
2023/06/04 00:55:42;;;;;;;8.60;7.83;;;19.80;14.00;;;;;;4993222;28;20414;-73
2023/06/04 00:58:09;;;;;;;8.80;7.87;;;19.80;14.00;;;;;;4993640;28;20194;-73
2023/06/04 01:00:35;;;;;;;10.53;8.63;;;19.80;14.00;;;;;;4994051;28;20792;-74
2023/06/04 01:03:07;;;;;;;8.20;7.70;;;19.80;13.80;;;;;;4993234;28;20459;-74
2023/06/04 01:05:39;;;;;;;8.80;8.27;;;19.80;13.70;;;;;;4993785;28;20455;-74
2023/06/04 01:08:09;;;;;;;8.23;7.70;;;19.70;13.90;;;;;;4993813;28;20405;-74
2023/06/04 01:10:35;;;;;;;8.30;7.80;;;19.70;13.50;;;;;;4993825;28;20424;-74
2023/06/04 01:13:01;;;;;;;8.20;7.60;;;19.70;13.50;;;;;;4992966;28;20834;-74
2023/06/04 01:15:26;;;;;;;9.23;8.50;;;19.70;13.60;;;;;;4993767;28;20544;-74
2023/06/04 01:18:02;;;;;;;8.23;7.60;;;19.60;13.60;;;;;;4993856;28;20304;-74
2023/06/04 01:20:42;;;;;;;8.17;7.60;;;19.60;13.70;;;;;;4993785;28;20197;-74
2023/06/04 01:23:33;;;;;;;8.53;7.90;;;19.60;13.70;;;;;;4992745;28;20429;-74
2023/06/04 01:26:03;;;;;;;8.37;7.60;;;19.60;13.50;;;;;;4993422;28;20938;-74
2023/06/04 01:28:29;;;;;;;8.07;7.57;;;19.60;13.40;;;;;;4993375;28;20417;-74
2023/06/04 01:30:56;;;;;;;7.80;7.00;;;19.60;13.30;;;;;;4993033;28;20416;-74
2023/06/04 01:33:22;;;;;;;7.83;7.27;;;19.60;13.40;;;;;;4992692;28;20435;-74
2023/06/04 01:35:49;;;;;;;8.07;7.57;;;19.60;13.40;;;;;;4992990;28;20428;-75
2023/06/04 01:38:15;;;;;;;8.27;7.67;;;19.60;12.80;;;;;;4993173;28;20428;-74
2023/06/04 01:40:40;;;;;;;8.07;7.50;;;19.60;13.10;;;;;;4993195;28;20781;-74
2023/06/04 01:43:06;;;;;;;7.63;7.13;;;19.50;12.80;;;;;;4992523;28;20198;-74
2023/06/04 01:45:32;;;;;;;8.70;7.90;;;19.60;12.80;;;;;;4992443;28;20585;-74
2023/06/04 01:48:00;;;;;;;7.37;6.87;;;19.50;12.70;;;;;;4992276;28;20178;-74
2023/06/04 01:50:26;;;;;;;7.73;7.10;;;19.50;12.80;;;;;;4992599;28;20229;-74
2023/06/04 01:52:51;;;;;;;7.57;7.00;;;19.50;12.80;;;;;;4992816;28;20866;-73
2023/06/04 01:55:17;;;;;;;7.70;7.10;;;19.50;12.80;;;;;;4997550;28;20170;-74
2023/06/04 01:57:44;;;;;;;7.30;6.90;;;19.50;12.70;;;;;;5004532;28;20169;-75
2023/06/04 02:00:11;;;;;;;7.37;6.97;;;19.50;12.70;;;;;;5015767;28;20456;-74
2023/06/04 02:02:38;;;;;;;8.97;7.70;;;19.50;12.70;;;;;;4997652;28;20437;-73
2023/06/04 02:05:07;;;;;;;7.73;7.23;;;19.50;12.80;;;;;;4992951;28;20419;-73
2023/06/04 02:07:38;;;;;;;7.63;7.17;;;19.40;12.60;;;;;;4993093;28;20413;-73
2023/06/04 02:10:08;;;;;;;7.23;6.83;;;19.40;12.70;;;;;;4991427;28;20491;-73
2023/06/04 02:12:36;;;;;;;8.00;7.50;;;19.40;13.00;;;;;;4992335;28;20453;-73
2023/06/04 02:15:02;;;;;;;7.33;6.93;;;19.30;13.00;;;;;;4992902;28;20895;-73
2023/06/04 02:17:32;;;;;;;7.37;6.87;;;19.40;13.10;;;;;;4992639;28;20445;-73
2023/06/04 02:19:59;;;;;;;6.60;6.10;;;19.40;13.10;;;;;;4991401;28;20472;-74
2023/06/04 02:22:25;;;;;;;7.70;7.20;;;19.30;13.10;;;;;;4989546;28;20433;-73
2023/06/04 02:24:51;;;;;;;7.47;6.90;;;19.30;13.00;;;;;;4991397;28;20418;-73
2023/06/04 02:27:17;;;;;;;7.13;6.73;;;19.30;13.10;;;;;;4992876;28;20412;-73
2023/06/04 02:29:43;;;;;;;7.77;7.23;;;19.30;13.10;;;;;;4991476;28;20448;-73
2023/06/04 02:32:09;;;;;;;7.80;7.30;;;19.30;12.80;;;;;;4992052;28;20348;-74
2023/06/04 02:34:35;;;;;;;7.63;7.13;;;19.30;12.60;;;;;;4992702;28;20420;-73
2023/06/04 02:37:01;;;;;;;7.13;6.63;;;19.20;12.80;;;;;;4992474;28;20425;-73
2023/06/04 02:39:27;;;;;;;7.23;6.40;;;19.30;12.80;;;;;;4992661;28;20241;-73
2023/06/04 02:41:52;;;;;;;7.70;7.20;;;19.20;12.80;;;;;;4991154;28;20494;-73
2023/06/04 02:44:18;;;;;;;7.77;7.17;;;19.20;13.80;;;;;;5007110;28;20248;-73
2023/06/04 02:46:44;;;;;;;8.40;7.80;;;19.20;13.90;;;;;;4991723;28;20586;-73
2023/06/04 02:49:13;;;;;;;8.23;6.97;;;19.10;13.60;;;;;;4992487;28;20723;-73
2023/06/04 02:51:39;;;;;;;7.70;7.20;;;19.20;13.70;;;;;;4991906;28;20914;-73
2023/06/04 02:54:05;;;;;;;7.40;6.90;;;19.10;13.50;;;;;;4992230;28;20524;-73
2023/06/04 02:56:31;;;;;;;7.30;6.70;;;19.10;13.80;;;;;;4992179;28;20857;-73
2023/06/04 02:58:56;;;;;;;8.00;7.50;;;19.00;13.90;;;;;;5007055;28;20216;-73
2023/06/04 03:01:23;;;;;;;7.70;7.20;;;19.00;14.00;;;;;;5006837;28;20719;-73
2023/06/04 03:03:49;;;;;;;8.53;7.50;;;19.00;14.00;;;;;;4992094;28;20673;-73
2023/06/04 03:06:15;;;;;;;9.50;8.60;;;19.00;13.90;;;;;;4991337;28;20428;-73
2023/06/04 03:08:42;;;;;;;7.13;6.67;;;19.00;14.00;;;;;;4995907;28;20826;-73
2023/06/04 03:11:08;;;;;;;6.90;6.50;;;18.70;14.10;;;;;;4993208;28;20432;-73
2023/06/04 03:13:33;;;;;;;7.80;7.27;;;18.70;13.60;;;;;;4995550;28;20824;-73
2023/06/04 03:16:01;;;;;;;7.47;6.97;;;18.60;13.80;;;;;;4995618;28;20184;-73
2023/06/04 03:18:30;;;;;;;6.63;6.23;;;18.40;14.00;;;;;;4995647;28;20201;-73
2023/06/04 03:20:56;;;;;;;7.00;6.50;;;18.40;13.80;;;;;;4994901;28;20417;-73
2023/06/04 03:23:22;;;;;;;6.80;6.40;;;18.40;13.80;;;;;;4994979;28;20499;-74
2023/06/04 03:25:47;;;;;;;6.87;6.47;;;18.50;13.60;;;;;;4995514;28;20182;-73
2023/06/04 03:28:13;;;;;;;7.70;7.20;;;18.50;13.60;;;;;;4995627;28;20272;-73
2023/06/04 03:30:42;;;;;;;7.07;6.57;;;18.50;13.40;;;;;;4995718;28;20170;-73
2023/06/04 03:33:08;;;;;;;7.40;6.80;;;18.60;13.70;;;;;;4994677;28;20536;-73
2023/06/04 03:35:33;;;;;;;6.97;6.40;;;18.50;13.50;;;;;;4995479;28;20576;-73
2023/06/04 03:37:59;;;;;;;7.13;6.47;;;18.50;13.00;;;;;;4994415;28;20174;-73
2023/06/04 03:40:25;;;;;;;7.40;6.80;;;18.40;13.00;;;;;;4994539;28;20691;-73
2023/06/04 03:42:50;;;;;;;6.80;6.40;;;18.40;13.20;;;;;;4994387;28;20526;-74
2023/06/04 03:45:16;;;;;;;12.60;6.10;;;18.50;13.10;;;;;;4995162;28;20213;-74
2023/06/04 03:47:42;;;;;;;6.60;6.30;;;18.50;12.90;;;;;;4994341;28;20253;-73
2023/06/04 03:50:08;;;;;;;6.93;6.30;;;18.40;12.90;;;;;;4994922;28;20209;-73
2023/06/04 03:52:33;;;;;;;7.17;6.60;;;18.40;13.10;;;;;;4993471;28;20704;-74
2023/06/04 03:55:00;;;;;;;6.27;5.97;;;18.40;13.10;;;;;;4994851;28;20417;-74
2023/06/04 03:57:25;;;;;;;6.03;5.73;;;18.40;13.10;;;;;;4994940;28;20206;-73
2023/06/04 03:59:51;;;;;;;7.43;6.80;;;18.50;13.00;;;;;;4995043;28;20938;-74
2023/06/04 04:02:18;;;;;;;6.93;6.43;;;18.40;13.10;;;;;;4993865;28;20189;-73
2023/06/04 04:04:43;;;;;;;6.40;5.90;;;18.40;13.30;;;;;;4996383;28;20629;-73
2023/06/04 04:07:10;;;;;;;6.07;5.67;;;18.40;13.20;;;;;;4994776;28;20423;-74
2023/06/04 04:09:36;;;;;;;7.97;7.37;;;18.40;13.50;;;;;;4995120;28;21189;-73
2023/06/04 04:12:02;;;;;;;6.53;6.17;;;18.50;13.40;;;;;;4993479;28;20445;-73
2023/06/04 04:14:27;;;;;;;6.80;6.30;;;18.50;13.60;;;;;;4982348;28;20509;-74
2023/06/04 04:16:53;;;;;;;7.20;6.70;;;18.40;13.70;;;;;;4993271;28;20184;-74
2023/06/04 04:19:18;;;;;;;7.03;6.63;;;18.40;13.70;;;;;;4985270;28;20866;-72
2023/06/04 04:21:48;;;;;;;7.10;6.70;;;18.40;13.60;;;;;;4975433;28;20182;-73
2023/06/04 04:24:24;;;;;;;6.80;6.40;;;18.50;14.00;;;;;;4975203;28;20195;-73
2023/06/04 04:26:53;;;;;;;9.80;6.60;;;18.50;14.10;;;;;;4974913;28;20430;-73
2023/06/04 04:29:22;;;;;;;6.60;6.17;;;18.40;14.20;;;;;;4973451;28;20429;-73
2023/06/04 04:31:51;;;;;;;6.50;6.10;;;18.40;14.30;;;;;;4974232;28;20505;-74
2023/06/04 04:34:20;;;;;;;7.17;6.60;;;18.40;14.20;;;;;;4974669;28;20434;-73
2023/06/04 04:36:51;;;;;;;7.53;6.87;;;18.30;14.20;;;;;;4974711;28;20414;-74
2023/06/04 04:39:19;;;;;;;7.17;6.67;;;18.10;14.80;;;;;;4973930;28;20860;-74
2023/06/04 04:41:44;;;;;;;6.70;6.30;;;18.00;14.90;;;;;;4974384;28;20922;-73
2023/06/04 04:44:09;;;;;;;7.50;6.90;;;18.00;15.50;;;;;;4974133;28;20432;-73
2023/06/04 04:46:35;;;;;;;6.90;6.40;;;18.10;15.00;;;;;;4974713;28;20185;-73
2023/06/04 04:49:00;;;;;;;7.17;6.77;;;18.10;15.10;;;;;;4975018;28;20189;-73
2023/06/04 04:51:26;;;;;;;7.50;6.87;;;18.10;15.10;;;;;;4974324;28;20218;-73
2023/06/04 04:53:52;;;;;;;7.77;7.20;;;18.10;15.10;;;;;;4979061;28;20274;-72
2023/06/04 04:56:17;;;;;;;7.27;6.53;;;18.10;15.20;;;;;;4977810;28;20757;-77
2023/06/04 04:58:43;;;;;;;6.77;6.37;;;18.10;14.90;;;;;;4974314;28;20751;-73
2023/06/04 05:01:08;;;;;;;7.70;7.10;;;18.10;14.60;;;;;;4973929;28;20524;-73
2023/06/04 05:03:34;;;;;;;6.80;6.13;;;18.10;14.40;;;;;;4974208;28;20194;-73
2023/06/04 05:05:59;;;;;;;6.90;6.40;;;18.10;14.60;;;;;;4974568;28;20167;-72
2023/06/04 05:08:25;;;;;;;6.57;6.03;;;18.20;14.70;;;;;;4984924;28;20209;-72
2023/06/04 05:10:50;;;;;;;6.30;5.90;;;18.10;15.60;;;;;;4994143;28;20193;-73
2023/06/04 05:13:17;;;;;;;6.50;6.07;;;18.10;15.60;;;;;;4984764;28;20209;-74
2023/06/04 05:15:43;;;;;;;6.20;5.70;;;18.10;14.40;;;;;;4992764;28;20373;-74
2023/06/04 05:18:08;;;;;;;6.40;5.97;;;18.10;15.20;;;;;;4989991;28;20499;-75
2023/06/04 05:20:37;;;;;;;5.97;5.57;;;18.20;14.90;;;;;;4992613;28;20206;-74
2023/06/04 05:23:03;;;;;;;6.30;5.80;;;18.20;14.10;;;;;;4993767;28;20182;-75
2023/06/04 05:25:29;;;;;;;6.50;6.00;;;18.20;13.90;;;;;;4992941;28;20928;-75
2023/06/04 05:27:56;;;;;;;6.67;6.17;;;18.20;13.90;;;;;;4991938;28;20441;-76
2023/06/04 05:30:22;;;;;;;5.33;4.93;;;18.20;13.00;;;;;;4992253;28;20177;-75
2023/06/04 05:32:50;;;;;;;6.03;5.73;;;18.10;13.20;;;;;;4992190;28;20433;-75
2023/06/04 05:35:16;;;;;;;5.97;5.57;;;18.10;13.40;;;;;;4991405;28;20182;-73
2023/06/04 05:37:42;;;;;;;6.27;5.87;;;18.20;13.10;;;;;;4992504;28;20424;-74
2023/06/04 05:40:09;;;;;;;5.17;4.87;;;18.20;13.00;;;;;;4989870;28;20548;-75
2023/06/04 05:42:35;;;;;;;6.10;5.70;;;18.20;12.80;;;;;;4991804;28;20436;-75
2023/06/04 05:45:01;;;;;;;4.77;4.30;;;18.20;12.80;;;;;;4992061;28;20405;-75
2023/06/04 05:47:28;;;;;;;5.60;5.20;;;18.30;12.50;;;;;;4992082;28;20895;-73
2023/06/04 05:49:54;;;;;;;5.70;5.30;;;18.30;11.90;;;;;;4991017;28;20178;-73
2023/06/04 05:52:19;;;;;;;4.93;4.70;;;18.30;11.90;;;;;;4989437;28;20429;-72
2023/06/04 05:54:45;;;;;;;6.30;5.90;;;18.30;11.90;;;;;;4991358;28;20174;-73
2023/06/04 05:57:11;;;;;;;7.13;6.63;;;18.30;13.40;;;;;;4991377;28;20257;-72
2023/06/04 05:59:36;;;;;;;5.90;5.60;;;18.20;14.40;;;;;;4991739;28;20208;-73
2023/06/04 06:02:02;;;;;;;6.77;6.27;;;18.20;14.70;;;;;;4990330;28;20166;-74
2023/06/04 06:04:28;;;;;;;6.17;5.77;;;18.20;15.00;;;;;;4992010;28;20170;-73
2023/06/04 06:06:53;;;;;;;5.73;5.43;;;18.20;14.70;;;;;;4991913;28;20174;-73
2023/06/04 06:09:19;;;;;;;6.47;6.07;;;18.10;15.10;;;;;;4990381;28;20178;-73
2023/06/04 06:11:45;;;;;;;6.43;5.80;;;18.20;15.70;;;;;;4988414;28;20209;-74
2023/06/04 06:14:11;;;;;;;6.83;6.23;;;18.20;15.30;;;;;;4979341;28;20446;-73
2023/06/04 06:16:37;;;;;;;5.50;5.10;;;18.30;15.50;;;;;;4972212;28;20175;-73
2023/06/04 06:19:02;;;;;;;5.90;5.40;;;18.30;13.70;;;;;;4972935;28;20673;-72
2023/06/04 06:21:28;;;;;;;5.60;5.10;;;18.10;14.00;;;;;;4972449;28;20421;-72
2023/06/04 06:23:54;;;;;;;5.53;5.07;;;18.10;13.60;;;;;;4972128;28;20194;-72
2023/06/04 06:26:21;;;;;;;5.57;5.27;;;18.10;13.50;;;;;;4973144;28;20174;-72
2023/06/04 06:28:47;;;;;;;5.50;5.10;;;18.00;13.50;;;;;;4972027;28;20414;-73
2023/06/04 06:31:12;;;;;;;6.13;5.60;;;18.00;14.20;;;;;;4972269;28;20979;-73
2023/06/04 06:33:41;;;;;;;5.63;5.13;;;18.10;13.30;;;;;;4973013;28;20201;-72
2023/06/04 06:36:08;;;;;;;5.50;5.10;;;18.10;13.00;;;;;;4973305;28;20573;-72
2023/06/04 06:38:33;;;;;;;5.53;5.00;;;18.20;13.10;;;;;;4973000;28;20836;-72
2023/06/04 06:40:59;;;;;;;6.47;5.97;;;18.20;12.90;;;;;;4972347;28;20513;-73
2023/06/04 06:43:25;;;;;;;5.43;4.97;;;18.20;13.40;;;;;;4975405;28;20199;-73
2023/06/04 06:45:50;;;;;;;5.30;4.87;;;18.20;12.50;;;;;;4977341;28;20202;-74
2023/06/04 06:48:16;;;;;;;5.00;4.60;;;18.30;12.50;;;;;;4974606;28;20189;-72
2023/06/04 06:50:42;;;;;;;6.30;5.90;;;18.40;12.00;;;;;;4977053;28;20179;-72
2023/06/04 06:53:08;;;;;;;5.90;5.30;;;18.40;12.00;;;;;;4974104;28;20454;-73
2023/06/04 06:55:33;;;;;;;6.23;5.63;;;18.40;12.00;;;;;;4976804;28;20256;-73
2023/06/04 06:57:59;;;;;;;7.83;6.00;;;18.50;12.00;;;;;;4975361;28;20179;-74
2023/06/04 07:00:27;;;;;;;5.43;5.13;;;18.50;12.10;;;;;;4977227;28;20233;-73
2023/06/04 07:02:52;;;;;;;5.60;5.07;;;18.50;12.40;;;;;;4975518;28;20190;-72
2023/06/04 07:05:18;;;;;;;4.80;4.50;;;18.60;12.20;;;;;;4975952;28;20414;-73
2023/06/04 07:07:43;;;;;;;4.67;4.33;;;18.60;12.20;;;;;;4990727;28;20179;-73
2023/06/04 07:10:09;;;;;;;5.00;4.60;;;18.70;12.00;;;;;;4975182;28;20267;-72
2023/06/04 07:12:35;;;;;;;5.43;5.03;;;18.70;11.50;;;;;;4975005;28;20225;-73
2023/06/04 07:15:01;;;;;;;4.43;4.20;;;18.70;12.20;;;;;;4974538;28;20178;-73
2023/06/04 07:17:26;;;;;;;4.87;4.57;;;18.80;12.20;;;;;;4976070;28;20656;-73
2023/06/04 07:19:52;;;;;;;4.63;4.33;;;18.80;11.40;;;;;;4975643;28;20210;-73
2023/06/04 07:22:17;;;;;;;5.27;4.83;;;18.80;12.10;;;;;;4974912;28;20179;-73
2023/06/04 07:24:43;;;;;;;8.17;5.53;;;18.80;11.90;;;;;;4975464;28;20186;-73
2023/06/04 07:27:15;;;;;;;5.37;4.97;;;18.90;12.30;;;;;;4989355;28;20182;-74
2023/06/04 07:29:44;;;;;;;5.33;5.03;;;19.00;12.20;;;;;;4975111;28;20691;-73
2023/06/04 07:32:10;;;;;;;5.77;5.27;;;18.90;11.70;;;;;;4989887;28;20434;-73
2023/06/04 07:34:36;;;;;;;5.40;4.93;;;19.00;11.90;;;;;;4975619;28;20482;-74
2023/06/04 07:37:02;;;;;;;6.00;5.67;;;18.90;11.90;;;;;;4975753;28;20185;-74
2023/06/04 07:39:28;;;;;;;5.43;4.87;;;19.00;12.40;;;;;;4978190;28;20465;-72
2023/06/04 07:41:53;;;;;;;5.50;5.20;;;19.00;12.30;;;;;;4977654;28;20183;-74
2023/06/04 07:44:19;;;;;;;6.07;5.67;;;19.10;12.50;;;;;;4977386;28;20203;-73
2023/06/04 07:46:44;;;;;;;5.73;5.43;;;19.20;11.90;;;;;;4982991;28;20185;-73
2023/06/04 07:49:10;;;;;;;5.57;5.17;;;19.20;11.70;;;;;;4980096;28;20274;-74
2023/06/04 07:51:37;;;;;;;5.60;5.30;;;19.20;12.20;;;;;;4977089;28;20179;-73
2023/06/04 07:54:02;;;;;;;5.70;5.20;;;19.30;12.50;;;;;;4991836;28;20209;-73
2023/06/04 07:56:28;;;;;;;4.33;4.03;;;19.40;12.20;;;;;;4978318;28;20422;-74
2023/06/04 07:58:54;;;;;;;6.27;5.87;;;19.50;11.90;;;;;;4977669;28;20202;-74
2023/06/04 08:01:19;;;;;;;5.70;5.10;;;19.40;11.60;;;;;;4976708;28;20214;-74
2023/06/04 08:03:45;;;;;;;8.23;5.30;;;19.40;12.10;;;;;;4977699;28;20198;-72
2023/06/04 08:06:14;;;;;;;5.30;4.90;;;19.50;12.80;;;;;;4977726;28;20171;-73
2023/06/04 08:08:44;;;;;;;5.53;5.00;;;19.60;12.20;;;;;;4976325;28;20660;-73
2023/06/04 08:11:09;;;;;;;5.50;5.13;;;19.60;12.10;;;;;;4976779;28;20410;-73
2023/06/04 08:13:35;;;;;;;6.03;5.40;;;19.60;12.50;;;;;;4978949;28;20516;-73
2023/06/04 08:16:00;;;;;;;5.53;5.20;;;19.60;12.30;;;;;;5002463;28;20246;-73
2023/06/04 08:18:26;;;;;;;5.90;5.50;;;19.70;12.90;;;;;;4984224;28;20185;-73
2023/06/04 08:20:51;;;;;;;5.33;4.87;;;19.90;12.10;;;;;;4976541;28;20274;-74
2023/06/04 08:23:17;;;;;;;4.80;4.50;;;20.00;12.20;;;;;;4975133;28;20314;-75
2023/06/04 08:25:42;;;;;;;5.17;4.87;;;20.10;13.10;;;;;;4975157;28;20182;-74
2023/06/04 08:28:08;;;;;;;6.30;5.90;;;20.20;12.90;;;;;;4973676;28;20182;-74
2023/06/04 08:30:35;;;;;;;5.93;5.53;;;20.20;12.10;;;;;;4975417;28;20257;-73
2023/06/04 08:33:01;;;;;;;5.70;5.40;;;20.30;11.30;;;;;;4974473;28;20198;-73
2023/06/04 08:35:26;;;;;;;6.53;6.10;;;20.40;11.20;;;;;;4975562;28;20418;-74
2023/06/04 08:37:52;;;;;;;8.17;7.47;;;20.50;11.50;;;;;;4975503;28;20171;-74
2023/06/04 08:40:18;;;;;;;6.47;5.97;;;20.60;10.80;;;;;;4990508;28;20213;-74
2023/06/04 08:42:44;;;;;;;6.80;6.40;;;20.70;10.20;;;;;;4974382;28;20608;-74
2023/06/04 08:45:16;;;;;;;6.53;5.93;;;20.80;10.70;;;;;;4974952;28;20170;-74
2023/06/04 08:47:47;;;;;;;6.13;5.83;;;20.80;10.80;;;;;;4975230;28;20829;-73
2023/06/04 08:50:25;;;;;;;7.30;6.60;;;21.10;10.10;;;;;;4974712;28;20429;-74
2023/06/04 08:52:55;;;;;;;6.03;5.63;;;21.20;10.20;;;;;;4973329;28;20869;-74
2023/06/04 08:55:22;;;;;;;6.50;6.20;;;21.30;10.20;;;;;;4975295;28;20846;-74
2023/06/04 08:57:50;;;;;;;5.50;5.20;;;21.50;9.90;;;;;;4974995;28;20477;-74
2023/06/04 09:00:18;;;;;;;6.57;5.97;;;21.60;9.60;;;;;;4974790;28;20462;-74
2023/06/04 09:02:44;;;;;;;6.07;5.67;;;21.70;9.80;;;;;;4988883;28;20449;-73
2023/06/04 09:05:19;;;;;;;6.40;5.27;;;21.70;9.30;;;;;;4973759;28;20951;-73
2023/06/04 09:07:46;;;;;;;6.00;5.47;;;21.90;9.30;;;;;;4974516;28;20406;-72
2023/06/04 09:10:15;;;;;;;5.43;5.13;;;22.00;9.30;;;;;;4977520;28;20903;-73
2023/06/04 09:12:46;;;;;;;5.07;4.77;;;21.90;10.50;;;;;;4978819;28;20457;-73
2023/06/04 09:15:12;;;;;;;6.73;6.20;;;21.90;10.80;;;;;;4974973;28;20418;-74
2023/06/04 09:17:38;;;;;;;5.10;4.90;;;21.80;11.20;;;;;;4973526;28;20940;-74
2023/06/04 09:20:08;;;;;;;10.17;9.37;;;21.90;9.60;;;;;;4974674;28;20454;-74
2023/06/04 09:22:35;;;;;;;5.53;5.13;;;22.20;8.80;;;;;;4974088;28;20197;-73
2023/06/04 09:25:02;;;;;;;6.17;4.87;;;22.10;9.20;;;;;;4974594;28;20413;-74
2023/06/04 09:27:36;;;;;;;5.40;5.10;;;22.00;9.20;;;;;;4975040;28;20417;-74
2023/06/04 09:30:02;;;;;;;5.07;4.87;;;22.10;9.60;;;;;;4973433;28;20409;-73
2023/06/04 09:32:30;;;;;;;5.10;4.80;;;22.20;9.50;;;;;;4972312;28;20437;-74
2023/06/04 09:35:08;;;;;;;5.50;5.10;;;22.40;9.00;;;;;;4972735;28;20203;-74
2023/06/04 09:37:34;;;;;;;5.93;5.53;;;22.50;9.00;;;;;;4971897;28;20804;-74
2023/06/04 09:40:00;;;;;;;5.30;5.00;;;22.80;8.40;;;;;;4973186;28;20513;-74
2023/06/04 09:42:26;;;;;;;6.37;5.87;;;22.90;8.40;;;;;;4972682;28;20990;-73
2023/06/04 09:44:52;;;;;;;6.73;5.17;;;22.80;8.10;;;;;;4973362;28;20262;-73
2023/06/04 09:47:17;;;;;;;5.93;4.83;;;23.00;7.30;;;;;;4972654;28;20171;-74
2023/06/04 09:49:44;;;;;;;5.87;5.40;;;23.10;6.30;;;;;;4972665;28;20181;-74
2023/06/04 09:52:10;;;;;;;6.90;5.00;;;23.30;6.40;;;;;;4971704;28;20604;-74
2023/06/04 09:54:41;;;;;;;6.57;5.00;;;23.40;6.70;;;;;;4973883;28;20944;-75
2023/06/04 09:57:19;;;;;;;5.80;5.17;;;23.40;7.00;;;;;;4973799;28;20414;-74
2023/06/04 09:59:49;;;;;;;5.37;4.97;;;23.60;6.70;;;;;;4973782;28;20489;-74
2023/06/04 10:02:20;;;;;;;5.70;5.17;;;23.80;7.30;;;;;;4973129;28;20411;-74
2023/06/04 10:04:50;;;;;;;8.23;5.50;;;23.80;6.80;;;;;;4973909;28;20946;-74
2023/06/04 10:07:16;;;;;;;8.53;5.93;;;23.90;6.00;;;;;;4973508;28;20913;-74
2023/06/04 10:09:47;;;;;;;5.33;4.87;;;24.10;5.10;;;;;;4973773;28;20418;-73
2023/06/04 10:12:16;;;;;;;5.60;5.30;;;24.30;5.60;;;;;;4972693;28;20222;-73
2023/06/04 10:14:48;;;;;;;5.80;5.40;;;24.40;5.40;;;;;;4972940;28;20471;-73
2023/06/04 10:17:16;;;;;;;5.37;5.07;;;24.40;5.80;;;;;;4973798;28;20437;-73
2023/06/04 10:19:44;;;;;;;5.70;5.20;;;24.50;4.70;;;;;;4976345;28;20457;-73
2023/06/04 10:22:11;;;;;;;5.70;5.20;;;24.50;4.40;;;;;;4975801;28;20907;-73
2023/06/04 10:24:37;;;;;;;5.60;5.30;;;24.60;3.90;;;;;;4976069;28;20438;-76
2023/06/04 10:27:10;;;;;;;6.17;5.67;;;24.70;4.10;;;;;;4985420;28;20420;-74
2023/06/04 10:29:36;;;;;;;6.80;5.70;;;24.80;4.00;;;;;;4995506;28;20419;-73
2023/06/04 10:32:03;;;;;;;5.00;4.80;;;24.80;4.00;;;;;;4994577;28;20412;-74
2023/06/04 10:34:29;;;;;;;10.27;6.10;;;24.90;3.80;;;;;;4994972;28;20424;-74
2023/06/04 10:36:55;;;;;;;6.37;5.87;;;25.10;3.00;;;;;;4995356;28;20937;-74
2023/06/04 10:39:35;;;;;;;6.10;5.60;;;25.10;3.00;;;;;;4995206;28;20460;-73
2023/06/04 10:42:08;;;;;;;7.83;6.10;;;25.10;3.00;;;;;;4994677;28;20532;-73
2023/06/04 10:44:53;;;;;;;8.10;6.00;;;25.10;3.10;;;;;;4995023;28;20444;-73
2023/06/04 10:47:26;;;;;;;6.67;5.97;;;25.10;3.20;;;;;;4993836;28;20752;-73
2023/06/04 10:49:53;;;;;;;7.93;5.87;;;25.10;3.30;;;;;;4995128;28;20508;-73
2023/06/04 10:52:19;;;;;;;5.80;5.50;;;25.20;3.30;;;;;;4994479;28;20441;-74
2023/06/04 10:54:48;;;;;;;8.60;6.27;;;25.30;3.10;;;;;;4995339;28;20919;-74
2023/06/04 10:57:18;;;;;;;6.10;5.80;;;25.30;3.10;;;;;;4995205;28;20617;-74
2023/06/04 10:59:57;;;;;;;8.87;8.07;;;25.30;3.10;;;;;;4994823;28;20515;-74
2023/06/04 11:02:23;;;;;;;5.77;5.47;;;25.50;3.50;;;;;;4994663;28;20429;-74
2023/06/04 11:05:08;;;;;;;6.10;5.70;;;25.40;3.30;;;;;;4995588;28;20938;-73
2023/06/04 11:07:45;;;;;;;6.10;5.70;;;25.30;3.10;;;;;;4994021;28;20249;-71
2023/06/04 11:10:12;;;;;;;6.63;6.13;;;25.10;3.60;;;;;;4995468;28;20440;-74
2023/06/04 11:12:45;;;;;;;6.97;6.40;;;25.10;3.70;;;;;;4958835;28;1045196;-74
2023/06/04 11:15:11;;;;;;;5.70;5.30;;;25.00;3.60;;;;;;4994648;28;20204;-74
2023/06/04 11:17:36;;;;;;;6.37;5.77;;;25.10;3.80;;;;;;4995890;28;20432;-73
2023/06/04 11:20:02;;;;;;;6.97;6.37;;;25.10;3.40;;;;;;4995492;28;20460;-73
2023/06/04 11:22:28;;;;;;;7.20;6.50;;;25.00;3.70;;;;;;4995209;28;20213;-73
2023/06/04 11:25:00;;;;;;;7.43;6.83;;;24.80;3.70;;;;;;4995631;28;20174;-73
2023/06/04 11:27:25;;;;;;;6.50;6.00;;;24.70;4.30;;;;;;4985096;28;20433;-73
2023/06/04 11:29:52;;;;;;;7.07;6.37;;;24.80;4.20;;;;;;4976101;28;20426;-73
2023/06/04 11:32:24;;;;;;;6.50;6.10;;;24.70;4.60;;;;;;4975474;28;20545;-73
2023/06/04 11:34:50;;;;;;;7.00;6.60;;;24.80;4.00;;;;;;4974643;28;20422;-72
2023/06/04 11:37:15;;;;;;;9.90;7.07;;;24.70;3.70;;;;;;4976138;28;20935;-74
2023/06/04 11:39:44;;;;;;;5.93;5.53;;;24.60;3.60;;;;;;4976009;28;20210;-74
2023/06/04 11:42:10;;;;;;;6.30;5.87;;;24.60;3.20;;;;;;4985899;28;20649;-73
2023/06/04 11:44:35;;;;;;;5.90;5.50;;;24.70;2.80;;;;;;4988748;28;20483;-74
2023/06/04 11:47:06;;;;;;;6.30;5.70;;;24.80;2.80;;;;;;4988994;28;20904;-74
2023/06/04 11:49:31;;;;;;;6.70;6.20;;;24.80;2.80;;;;;;4986045;28;20177;-72
2023/06/04 11:51:57;;;;;;;9.50;8.50;;;24.60;2.70;;;;;;4977704;28;20414;-73
2023/06/04 11:54:23;;;;;;;6.87;6.37;;;24.80;2.80;;;;;;4975542;28;20229;-73
2023/06/04 11:56:50;;;;;;;6.30;5.80;;;24.90;2.90;;;;;;4982283;28;20190;-73
2023/06/04 11:59:17;;;;;;;6.20;5.83;;;25.00;3.00;;;;;;4995255;28;20471;-74
2023/06/04 12:01:44;;;;;;;6.20;5.70;;;25.10;2.30;;;;;;4993371;28;20451;-74
2023/06/04 12:04:17;;;;;;;6.70;6.17;;;25.00;2.40;;;;;;4994405;28;20467;-74
2023/06/04 12:06:57;;;;;;;6.80;5.90;;;24.90;2.90;;;;;;4993301;28;20484;-73
2023/06/04 12:09:27;;;;;;;6.50;6.10;;;24.70;2.80;;;;;;4995024;28;20915;-74
2023/06/04 12:12:01;;;;;;;10.30;5.63;;;24.60;3.20;;;;;;4993638;28;20492;-74
2023/06/04 12:14:27;;;;;;;18.47;6.70;;;24.50;3.30;;;;;;4994633;28;20451;-75
2023/06/04 12:17:00;;;;;;;7.40;6.67;;;24.40;3.60;;;;;;4993416;28;20417;-74
2023/06/04 12:19:26;;;;;;;7.17;6.57;;;24.40;3.50;;;;;;4994484;28;20560;-74
2023/06/04 12:22:06;;;;;;;6.43;6.07;;;24.30;3.50;;;;;;4992715;28;20445;-73
2023/06/04 12:24:52;;;;;;;6.90;6.30;;;24.30;3.40;;;;;;4994530;28;20405;-73
2023/06/04 12:27:19;;;;;;;6.60;6.10;;;24.30;3.20;;;;;;4993279;28;20425;-73
2023/06/04 12:30:02;;;;;;;6.70;6.20;;;24.30;3.50;;;;;;4994244;28;20413;-73
2023/06/04 12:32:28;;;;;;;7.13;6.53;;;24.20;3.30;;;;;;4993118;28;20449;-73
2023/06/04 12:34:54;;;;;;;6.53;6.13;;;24.20;3.30;;;;;;5010362;28;20452;-74
2023/06/04 12:37:21;;;;;;;6.70;6.10;;;24.20;2.80;;;;;;4995560;28;20193;-74
2023/06/04 12:39:47;;;;;;;6.37;5.97;;;24.20;2.80;;;;;;5001430;28;20457;-74
2023/06/04 12:42:14;;;;;;;7.23;6.63;;;24.30;3.00;;;;;;4993623;28;20424;-73
2023/06/04 12:44:40;;;;;;;6.87;6.30;;;24.20;3.80;;;;;;4994854;28;20161;-74
2023/06/04 12:47:09;;;;;;;6.23;5.83;;;24.20;3.50;;;;;;4994917;28;20417;-73
2023/06/04 12:49:34;;;;;;;7.00;6.57;;;24.20;3.00;;;;;;4994451;28;20401;-73
2023/06/04 12:52:00;;;;;;;6.50;6.20;;;24.30;3.10;;;;;;4994026;28;20498;-74